nws-alerts: Checking more than four warning/county codes can delay the loading of your pages. You should use a cron job to get the data.
EllijayWeather Station Historical Data
 
Daily Summary for January 28, 2020 Units:  English    Metric   Both
Daily Weekly Monthly Yearly Custom
  Current: High: Low: Average:
Temperature: 30.6 °F 32 °F 30.6 °F 31.4 °F
Dew Point: 29.8 °F 31.3 °F 29.8 °F 30.7 °F
Humidity: 97% 97% 97% 97%
Wind Speed: 0mph 0mph 0mph 0mph
Wind Gust: 0mph 0mph - -
WindCalm - - North
Pressure: 30.05 in 30.05 in 30.04 in -
Precipitation: 0 in      
Historical Graphs
 
 
Tabular Data for January 28, 2020
Time Temperature Dew Point Pressure Wind Wind Speed Wind Gust Humidity Rainfall Rate (Hourly) solar
00:00 32 °F 31.3 °F 30.05 in Calm     97% 0 in meteobridge W/m2
00:05 31.8 °F 31.1 °F 30.05 in Calm     97% 0 in meteobridge W/m2
00:10 31.8 °F 31.1 °F 30.05 in Calm     97% 0 in meteobridge W/m2
00:15 31.8 °F 31.1 °F 30.05 in Calm     97% 0 in meteobridge W/m2
00:20 31.8 °F 31.1 °F 30.05 in Calm     97% 0 in meteobridge W/m2
00:25 31.8 °F 31.1 °F 30.05 in Calm     97% 0 in meteobridge W/m2
00:30 31.8 °F 31.1 °F 30.05 in Calm     97% 0 in meteobridge W/m2
00:35 31.8 °F 31.1 °F 30.05 in Calm     97% 0 in meteobridge W/m2
00:40 31.6 °F 30.9 °F 30.05 in Calm     97% 0 in meteobridge W/m2
00:45 31.8 °F 31.1 °F 30.05 in Calm     97% 0 in meteobridge W/m2
00:50 31.6 °F 30.9 °F 30.05 in Calm     97% 0 in meteobridge W/m2
00:55 31.6 °F 30.9 °F 30.05 in Calm     97% 0 in meteobridge W/m2
01:00 31.6 °F 30.9 °F 30.05 in Calm     97% 0 in meteobridge W/m2
01:05 31.6 °F 30.9 °F 30.05 in Calm     97% 0 in meteobridge W/m2
01:10 31.6 °F 30.9 °F 30.05 in Calm     97% 0 in meteobridge W/m2
01:15 31.6 °F 30.9 °F 30.05 in Calm     97% 0 in meteobridge W/m2
01:20 31.6 °F 30.9 °F 30.04 in Calm     97% 0 in meteobridge W/m2
01:25 31.5 °F 30.7 °F 30.04 in Calm     97% 0 in meteobridge W/m2
01:30 31.6 °F 30.9 °F 30.04 in Calm     97% 0 in meteobridge W/m2
01:35 31.5 °F 30.7 °F 30.05 in Calm     97% 0 in meteobridge W/m2
01:40 31.5 °F 30.7 °F 30.05 in Calm     97% 0 in meteobridge W/m2
01:45 31.5 °F 30.7 °F 30.04 in Calm     97% 0 in meteobridge W/m2
01:50 31.5 °F 30.7 °F 30.05 in Calm     97% 0 in meteobridge W/m2
01:55 31.3 °F 30.6 °F 30.05 in Calm     97% 0 in meteobridge W/m2
02:00 31.3 °F 30.6 °F 30.05 in Calm     97% 0 in meteobridge W/m2
02:05 31.3 °F 30.6 °F 30.05 in Calm     97% 0 in meteobridge W/m2
02:10 31.3 °F 30.6 °F 30.05 in Calm     97% 0 in meteobridge W/m2
02:15 31.1 °F 30.4 °F 30.05 in Calm     97% 0 in meteobridge W/m2
02:20 31.1 °F 30.4 °F 30.05 in Calm     97% 0 in meteobridge W/m2
02:25 30.9 °F 30.2 °F 30.05 in Calm     97% 0 in meteobridge W/m2
02:30 30.9 °F 30.2 °F 30.05 in Calm     97% 0 in meteobridge W/m2
02:35 30.9 °F 30.2 °F 30.05 in Calm     97% 0 in meteobridge W/m2
02:40 30.9 °F 30.2 °F 30.05 in Calm     97% 0 in meteobridge W/m2
02:45 30.9 °F 30.2 °F 30.05 in Calm     97% 0 in meteobridge W/m2
02:50 30.7 °F 30 °F 30.05 in Calm     97% 0 in meteobridge W/m2
02:55 30.7 °F 30 °F 30.05 in Calm     97% 0 in meteobridge W/m2
03:00 30.6 °F 29.8 °F 30.05 in Calm     97% 0 in meteobridge W/m2
EllijayWeather
Compliments of Weather Underground - 1.25 mb